createdAt,value
2018-06-10T00:01:21.879Z,15.80
2018-06-10T00:03:50.650Z,15.80
2018-06-10T00:06:19.403Z,15.80
2018-06-10T00:08:48.158Z,15.70
2018-06-10T00:11:16.910Z,15.60
2018-06-10T00:13:45.682Z,15.60
2018-06-10T00:16:14.870Z,15.50
2018-06-10T00:18:43.654Z,15.50
2018-06-10T00:21:12.445Z,15.50
2018-06-10T00:23:41.234Z,15.50
2018-06-10T00:26:10.316Z,15.50
2018-06-10T00:28:44.374Z,15.50
2018-06-10T00:31:13.147Z,15.50
2018-06-10T00:33:42.784Z,15.50
2018-06-10T00:36:11.765Z,15.50
2018-06-10T00:38:40.922Z,15.40
2018-06-10T00:41:09.798Z,15.40
2018-06-10T00:46:07.370Z,15.40
2018-06-10T00:48:36.157Z,15.40
2018-06-10T00:51:04.962Z,15.40
2018-06-10T00:53:34.041Z,15.30
2018-06-10T00:56:12.758Z,15.30
2018-06-10T00:58:41.494Z,15.20
2018-06-10T01:01:10.406Z,15.20
2018-06-10T01:03:39.187Z,15.20
2018-06-10T01:06:07.946Z,15.20
2018-06-10T01:08:36.751Z,15.20
2018-06-10T01:11:06.713Z,15.20
2018-06-10T01:13:35.486Z,15.20
2018-06-10T01:16:04.259Z,15.20
2018-06-10T01:18:33.390Z,15.20
2018-06-10T01:21:03.298Z,15.20
2018-06-10T01:23:32.286Z,15.20
2018-06-10T01:26:01.286Z,15.20
2018-06-10T01:28:30.791Z,15.20
2018-06-10T01:30:59.937Z,15.20
2018-06-10T01:33:28.706Z,15.20
2018-06-10T01:35:57.862Z,15.20
2018-06-10T01:38:26.644Z,15.20
2018-06-10T01:40:55.414Z,15.20
2018-06-10T01:43:24.174Z,15.20
2018-06-10T01:45:52.945Z,15.20
2018-06-10T01:48:21.898Z,15.10
2018-06-10T01:50:50.894Z,15.10
2018-06-10T01:53:19.659Z,15.10
2018-06-10T01:55:48.412Z,15.10
2018-06-10T01:58:17.178Z,15.10
2018-06-10T02:00:46.136Z,15.00
2018-06-10T02:03:15.138Z,14.80
2018-06-10T02:05:44.234Z,14.70
2018-06-10T02:08:12.985Z,14.70
2018-06-10T02:10:42.139Z,14.60
2018-06-10T02:13:11.218Z,14.50
2018-06-10T02:15:40.326Z,14.50
2018-06-10T02:18:09.402Z,14.50
2018-06-10T02:20:38.494Z,14.50
2018-06-10T02:23:07.594Z,14.50
2018-06-10T02:25:36.889Z,14.40
2018-06-10T02:28:05.876Z,14.50
2018-06-10T02:30:34.873Z,14.50
2018-06-10T02:33:03.863Z,14.40
2018-06-10T02:35:32.850Z,14.40
2018-06-10T02:38:02.355Z,14.40
2018-06-10T02:40:31.126Z,14.50
2018-06-10T02:43:00.152Z,14.50
2018-06-10T02:45:28.921Z,14.50
2018-06-10T02:47:57.774Z,14.50
2018-06-10T02:50:26.597Z,14.50
2018-06-10T02:52:55.694Z,14.60
2018-06-10T02:55:24.803Z,14.60
2018-06-10T02:57:54.754Z,14.60
2018-06-10T03:00:23.911Z,14.60
2018-06-10T03:02:53.006Z,14.60
2018-06-10T03:05:22.090Z,14.60
2018-06-10T03:07:51.198Z,14.70
2018-06-10T03:10:20.006Z,14.70
2018-06-10T03:12:48.778Z,14.80
2018-06-10T03:15:17.595Z,14.80
2018-06-10T03:17:46.394Z,14.90
2018-06-10T03:20:15.170Z,14.90
2018-06-10T03:22:43.933Z,15.00
2018-06-10T03:25:12.706Z,15.10
2018-06-10T03:27:41.519Z,15.10
2018-06-10T03:30:10.354Z,15.20
2018-06-10T03:32:39.123Z,15.20
2018-06-10T03:35:07.896Z,15.20
2018-06-10T03:37:37.054Z,15.30
2018-06-10T03:40:06.984Z,15.40
2018-06-10T03:42:36.034Z,15.40
2018-06-10T03:45:05.107Z,15.50
2018-06-10T03:47:34.129Z,15.50
2018-06-10T03:50:02.918Z,15.60
2018-06-10T03:52:32.014Z,15.60
2018-06-10T03:55:00.886Z,15.60
2018-06-10T03:57:29.639Z,15.60
2018-06-10T03:59:58.782Z,15.70
2018-06-10T04:02:27.881Z,15.80
2018-06-10T04:04:56.642Z,15.90
2018-06-10T04:07:25.379Z,15.90
2018-06-10T04:09:54.167Z,16.00
2018-06-10T04:12:23.244Z,16.10
2018-06-10T04:14:52.334Z,16.10
2018-06-10T04:17:21.098Z,16.20
2018-06-10T04:19:49.973Z,16.30
2018-06-10T04:22:18.742Z,16.40
2018-06-10T04:24:47.505Z,16.40
2018-06-10T04:27:16.290Z,16.60
2018-06-10T04:29:45.053Z,16.60
2018-06-10T04:32:13.858Z,16.70
2018-06-10T04:34:42.637Z,16.70
2018-06-10T04:37:11.393Z,16.80
2018-06-10T04:39:40.185Z,16.90
2018-06-10T04:42:08.973Z,17.00
2018-06-10T04:44:37.738Z,17.10
2018-06-10T04:47:06.535Z,17.10
2018-06-10T04:49:35.314Z,17.20
2018-06-10T04:52:04.085Z,17.30
2018-06-10T04:54:32.842Z,17.40
2018-06-10T04:57:01.591Z,17.50
2018-06-10T04:59:30.346Z,17.60
2018-06-10T05:01:59.111Z,17.70
2018-06-10T05:04:27.880Z,17.80
2018-06-10T05:06:56.634Z,17.90
2018-06-10T05:09:25.431Z,18.00
2018-06-10T05:11:54.222Z,18.20
2018-06-10T05:14:22.970Z,18.30
2018-06-10T05:16:51.735Z,18.40
2018-06-10T05:19:20.495Z,18.50
2018-06-10T05:21:50.226Z,18.60
2018-06-10T05:24:19.050Z,18.70
2018-06-10T05:26:47.789Z,18.80
2018-06-10T05:29:16.550Z,19.00
2018-06-10T05:31:45.363Z,19.10
2018-06-10T05:34:14.133Z,19.20
2018-06-10T05:36:42.904Z,19.30
2018-06-10T05:39:11.683Z,19.40
2018-06-10T05:41:40.443Z,19.40
2018-06-10T05:44:09.210Z,19.60
2018-06-10T05:46:38.020Z,19.60
2018-06-10T05:49:06.782Z,19.70
2018-06-10T05:51:35.609Z,19.80
2018-06-10T05:54:04.397Z,19.90
2018-06-10T05:56:33.168Z,19.90
2018-06-10T05:59:01.986Z,20.00
2018-06-10T06:01:30.755Z,20.20
2018-06-10T06:03:59.527Z,20.30
2018-06-10T06:06:28.285Z,20.30
2018-06-10T06:08:57.045Z,20.30
2018-06-10T06:11:25.801Z,20.40
2018-06-10T06:13:54.553Z,20.60
2018-06-10T06:16:23.350Z,20.70
2018-06-10T06:18:52.118Z,20.90
2018-06-10T06:21:20.881Z,21.10
2018-06-10T06:23:49.650Z,21.30
2018-06-10T06:26:18.421Z,21.30
2018-06-10T06:28:47.195Z,21.30
2018-06-10T06:31:15.978Z,21.40
2018-06-10T06:33:44.742Z,21.30
2018-06-10T06:36:13.543Z,21.30
2018-06-10T06:38:42.310Z,21.30
2018-06-10T06:41:11.074Z,21.40
2018-06-10T06:43:39.822Z,21.60
2018-06-10T06:46:08.586Z,21.50
2018-06-10T06:48:37.362Z,21.50
2018-06-10T06:51:06.150Z,21.60
2018-06-10T06:53:34.931Z,21.90
2018-06-10T06:56:03.806Z,22.10
2018-06-10T06:58:32.568Z,22.00
2018-06-10T07:01:01.324Z,22.00
2018-06-10T07:03:30.114Z,21.90
2018-06-10T07:05:58.876Z,22.10
2018-06-10T07:08:27.690Z,22.30
2018-06-10T07:10:56.433Z,22.40
2018-06-10T07:13:25.188Z,22.50
2018-06-10T07:15:53.958Z,22.60
2018-06-10T07:18:22.762Z,22.50
2018-06-10T07:20:51.577Z,22.50
2018-06-10T07:23:20.358Z,22.60
2018-06-10T07:25:49.195Z,22.70
2018-06-10T07:28:17.990Z,22.60
2018-06-10T07:30:46.798Z,22.70
2018-06-10T07:33:15.560Z,22.90
2018-06-10T07:35:44.362Z,23.10
2018-06-10T07:38:13.213Z,23.10
2018-06-10T07:40:41.977Z,23.10
2018-06-10T07:43:10.801Z,23.20
2018-06-10T07:45:39.576Z,23.10
2018-06-10T07:48:08.366Z,23.10
2018-06-10T07:50:37.174Z,23.10
2018-06-10T07:53:05.987Z,22.90
2018-06-10T07:55:34.758Z,23.10
2018-06-10T07:58:03.622Z,23.40
2018-06-10T08:00:32.406Z,23.50
2018-06-10T08:03:01.187Z,23.70
2018-06-10T08:05:30.056Z,24.00
2018-06-10T08:07:58.794Z,23.80
2018-06-10T08:10:27.574Z,23.60
2018-06-10T08:12:56.372Z,23.70
2018-06-10T08:15:25.145Z,23.90
2018-06-10T08:17:54.011Z,23.80
2018-06-10T08:20:22.797Z,24.00
2018-06-10T08:22:51.578Z,24.50
2018-06-10T08:25:20.371Z,24.80
2018-06-10T08:27:49.222Z,24.40
2018-06-10T08:30:17.989Z,24.40
2018-06-10T08:32:46.762Z,24.50
2018-06-10T08:35:15.598Z,24.30
2018-06-10T08:37:44.432Z,24.70
2018-06-10T08:40:13.210Z,24.50
2018-06-10T08:42:42.127Z,25.10
2018-06-10T08:45:10.882Z,25.30
2018-06-10T08:47:39.681Z,25.10
2018-06-10T08:50:08.463Z,24.90
2018-06-10T08:52:37.240Z,24.60
2018-06-10T08:55:06.014Z,24.70
2018-06-10T08:57:34.833Z,24.60
2018-06-10T09:00:03.758Z,24.50
2018-06-10T09:02:32.509Z,24.70
2018-06-10T09:05:01.274Z,24.50
2018-06-10T09:07:30.074Z,24.50
2018-06-10T09:09:58.854Z,24.80
2018-06-10T09:12:27.623Z,24.50
2018-06-10T09:17:24.878Z,24.50
2018-06-10T09:22:22.252Z,24.80
2018-06-10T09:24:51.058Z,24.80
2018-06-10T09:27:19.892Z,24.80
2018-06-10T09:29:48.894Z,24.90
2018-06-10T09:32:17.682Z,25.10
2018-06-10T09:34:46.440Z,25.20
2018-06-10T09:37:15.222Z,25.60
2018-06-10T09:39:43.992Z,25.40
2018-06-10T09:42:12.754Z,25.60
2018-06-10T09:44:41.603Z,25.90
2018-06-10T09:47:10.320Z,25.60
2018-06-10T09:52:07.463Z,25.30
2018-06-10T09:54:36.242Z,25.00
2018-06-10T09:57:05.290Z,25.30
2018-06-10T09:59:34.056Z,25.50
2018-06-10T10:02:02.840Z,25.30
2018-06-10T10:04:31.635Z,25.50
2018-06-10T10:07:00.400Z,25.40
2018-06-10T10:09:29.206Z,25.40
2018-06-10T10:11:57.982Z,25.30
2018-06-10T10:14:26.822Z,25.40
2018-06-10T10:16:55.589Z,25.50
2018-06-10T10:19:24.354Z,25.30
2018-06-10T10:21:53.154Z,25.30
2018-06-10T10:26:50.478Z,25.20
2018-06-10T10:29:19.299Z,25.70
2018-06-10T10:31:48.062Z,25.50
2018-06-10T10:34:17.174Z,25.60
2018-06-10T10:36:46.198Z,25.90
2018-06-10T10:39:14.990Z,25.80
2018-06-10T10:41:43.780Z,26.10
2018-06-10T10:44:13.378Z,26.10
2018-06-10T10:46:42.176Z,26.30
2018-06-10T10:49:11.001Z,26.10
2018-06-10T10:51:39.831Z,25.80
2018-06-10T10:54:08.846Z,26.00
2018-06-10T10:56:38.029Z,26.40
2018-06-10T10:59:07.206Z,26.80
2018-06-10T11:01:36.014Z,27.10
2018-06-10T11:04:04.802Z,26.80
2018-06-10T11:06:33.669Z,27.10
2018-06-10T11:09:02.496Z,27.10
2018-06-10T11:11:31.322Z,27.50
2018-06-10T11:14:00.218Z,27.60
2018-06-10T11:16:28.990Z,27.30
2018-06-10T11:18:57.798Z,27.30
2018-06-10T11:21:26.802Z,27.20
2018-06-10T11:23:55.586Z,27.60
2018-06-10T11:26:24.377Z,27.70
2018-06-10T11:28:53.154Z,27.80
2018-06-10T11:31:21.946Z,27.80
2018-06-10T11:33:50.770Z,27.70
2018-06-10T11:36:19.598Z,27.90
2018-06-10T11:38:48.342Z,28.00
2018-06-10T11:41:17.118Z,27.80
2018-06-10T11:43:46.334Z,28.10
2018-06-10T11:46:15.651Z,27.80
2018-06-10T11:48:44.450Z,27.80
2018-06-10T11:51:13.211Z,27.40
2018-06-10T11:53:41.986Z,27.50
2018-06-10T11:56:10.734Z,27.60
2018-06-10T11:58:39.490Z,28.00
2018-06-10T12:01:08.271Z,28.20
2018-06-10T12:03:37.058Z,28.40
2018-06-10T12:06:05.966Z,28.60
2018-06-10T12:08:34.730Z,28.40
2018-06-10T12:11:03.494Z,28.40
2018-06-10T12:13:32.291Z,28.70
2018-06-10T12:16:01.079Z,28.30
2018-06-10T12:18:29.854Z,28.00
2018-06-10T12:20:58.642Z,27.80
2018-06-10T12:23:27.445Z,27.80
2018-06-10T12:25:56.236Z,27.90
2018-06-10T12:28:25.026Z,28.00
2018-06-10T12:30:53.810Z,28.40
2018-06-10T12:33:22.578Z,28.70
2018-06-10T12:35:51.342Z,29.00
2018-06-10T12:38:20.189Z,29.10
2018-06-10T12:40:48.961Z,29.10
2018-06-10T12:43:17.749Z,28.80
2018-06-10T12:45:46.493Z,28.30
2018-06-10T12:48:15.282Z,28.00
2018-06-10T12:50:44.094Z,28.20
2018-06-10T12:53:12.870Z,28.10
2018-06-10T12:55:41.787Z,28.30
2018-06-10T12:58:10.571Z,28.60
2018-06-10T13:00:39.334Z,28.60
2018-06-10T13:03:08.122Z,28.30
2018-06-10T13:05:36.906Z,28.20
2018-06-10T13:08:05.952Z,28.10
2018-06-10T13:10:34.734Z,28.80
2018-06-10T13:13:03.514Z,29.10
2018-06-10T13:15:32.332Z,29.10
2018-06-10T13:18:01.096Z,28.70
2018-06-10T13:20:29.891Z,28.90
2018-06-10T13:22:58.653Z,29.00
2018-06-10T13:25:27.442Z,29.30
2018-06-10T13:27:56.250Z,29.00
2018-06-10T13:30:25.054Z,29.60
2018-06-10T13:32:53.830Z,29.60
2018-06-10T13:35:22.594Z,29.80
2018-06-10T13:37:51.346Z,29.70
2018-06-10T13:40:20.120Z,29.80
2018-06-10T13:42:48.897Z,29.30
2018-06-10T13:45:17.695Z,29.10
2018-06-10T13:47:46.473Z,29.40
2018-06-10T13:50:15.270Z,29.20
2018-06-10T13:52:44.041Z,29.00
2018-06-10T13:55:12.790Z,29.10
2018-06-10T13:57:41.565Z,29.40
2018-06-10T14:00:10.330Z,29.80
2018-06-10T14:02:39.113Z,30.60
2018-06-10T14:05:07.905Z,30.40
2018-06-10T14:07:36.698Z,30.00
2018-06-10T14:10:05.470Z,30.20
2018-06-10T14:12:34.234Z,30.40
2018-06-10T14:15:03.043Z,30.00
2018-06-10T14:17:31.871Z,29.30
2018-06-10T14:20:00.663Z,29.30
2018-06-10T14:22:29.482Z,29.80
2018-06-10T14:24:58.298Z,30.20
2018-06-10T14:27:27.140Z,30.50
2018-06-10T14:29:55.887Z,30.70
2018-06-10T14:32:24.666Z,30.70
2018-06-10T14:34:53.440Z,29.70
2018-06-10T14:37:22.198Z,29.60
2018-06-10T14:39:50.958Z,30.20
2018-06-10T14:42:19.758Z,29.70
2018-06-10T14:44:48.526Z,29.70
2018-06-10T14:47:17.318Z,29.70
2018-06-10T14:49:46.097Z,29.20
2018-06-10T14:52:14.947Z,29.70
2018-06-10T14:57:12.115Z,30.00
2018-06-10T14:59:40.903Z,29.40
2018-06-10T15:02:09.660Z,29.00
2018-06-10T15:04:38.447Z,28.60
2018-06-10T15:07:07.214Z,28.50
2018-06-10T15:09:35.999Z,28.50
2018-06-10T15:12:04.811Z,29.10
2018-06-10T15:14:33.587Z,28.90
2018-06-10T15:17:02.498Z,29.00
2018-06-10T15:21:59.690Z,29.10
2018-06-10T15:24:28.462Z,28.50
2018-06-10T15:26:57.240Z,28.70
2018-06-10T15:29:26.038Z,28.10
2018-06-10T15:31:54.812Z,28.80
2018-06-10T15:34:23.602Z,29.10
2018-06-10T15:36:52.370Z,29.50
2018-06-10T15:39:21.134Z,29.90
2018-06-10T15:41:49.890Z,29.80
2018-06-10T15:44:18.660Z,29.20
2018-06-10T15:46:47.450Z,29.10
2018-06-10T15:49:16.227Z,29.30
2018-06-10T15:51:45.034Z,28.50
2018-06-10T15:54:13.802Z,28.60
2018-06-10T15:56:42.573Z,29.10
2018-06-10T15:59:11.342Z,29.60
2018-06-10T16:01:40.112Z,29.80
2018-06-10T16:04:08.875Z,29.30
2018-06-10T16:06:37.650Z,29.60
2018-06-10T16:09:08.074Z,30.00
2018-06-10T16:11:36.850Z,29.90
2018-06-10T16:14:05.662Z,30.30
2018-06-10T16:16:34.444Z,30.00
2018-06-10T16:19:03.293Z,29.60
2018-06-10T16:21:32.025Z,28.50
2018-06-10T16:24:00.786Z,28.30
2018-06-10T16:26:29.582Z,28.40
2018-06-10T16:28:58.362Z,28.80
2018-06-10T16:31:27.135Z,28.30
2018-06-10T16:33:55.897Z,28.50
2018-06-10T16:36:24.646Z,28.30
2018-06-10T16:38:53.418Z,28.00
2018-06-10T16:41:22.214Z,28.60
2018-06-10T16:43:51.024Z,28.60
2018-06-10T16:46:19.894Z,28.70
2018-06-10T16:48:48.699Z,29.10
2018-06-10T16:51:17.484Z,28.30
2018-06-10T16:53:46.638Z,28.20
2018-06-10T16:56:15.418Z,27.60
2018-06-10T16:58:44.265Z,27.30
2018-06-10T17:01:13.022Z,27.90
2018-06-10T17:03:41.794Z,28.70
2018-06-10T17:06:10.554Z,29.10
2018-06-10T17:08:39.359Z,28.60
2018-06-10T17:11:08.152Z,30.30
2018-06-10T17:13:36.947Z,27.80
2018-06-10T17:16:05.724Z,27.20
2018-06-10T17:18:34.560Z,27.10
2018-06-10T17:21:03.322Z,26.30
2018-06-10T17:23:32.182Z,26.20
2018-06-10T17:26:00.958Z,26.00
2018-06-10T17:28:29.735Z,26.10
2018-06-10T17:30:58.502Z,26.10
2018-06-10T17:33:27.287Z,26.00
2018-06-10T17:35:56.070Z,26.50
2018-06-10T17:38:24.867Z,26.00
2018-06-10T17:40:53.720Z,25.80
2018-06-10T17:43:22.482Z,25.30
2018-06-10T17:45:51.255Z,24.80
2018-06-10T17:48:20.098Z,24.60
2018-06-10T17:50:48.902Z,24.50
2018-06-10T17:53:17.642Z,24.30
2018-06-10T17:55:46.410Z,24.10
2018-06-10T17:58:15.170Z,23.90
2018-06-10T18:00:43.950Z,23.90
2018-06-10T18:03:12.729Z,23.90
2018-06-10T18:05:41.531Z,23.70
2018-06-10T18:08:10.358Z,23.50
2018-06-10T18:10:39.139Z,23.60
2018-06-10T18:13:07.910Z,23.50
2018-06-10T18:15:36.667Z,23.40
2018-06-10T18:18:05.490Z,23.20
2018-06-10T18:20:34.380Z,23.00
2018-06-10T18:23:03.144Z,22.80
2018-06-10T18:25:32.020Z,22.70
2018-06-10T18:28:00.816Z,22.60
2018-06-10T18:30:29.603Z,22.50
2018-06-10T18:32:58.394Z,22.40
2018-06-10T18:35:27.273Z,22.30
2018-06-10T18:37:56.041Z,22.20
2018-06-10T18:40:24.843Z,22.10
2018-06-10T18:42:53.609Z,22.10
2018-06-10T18:45:22.385Z,21.90
2018-06-10T18:47:51.154Z,21.80
2018-06-10T18:50:20.003Z,21.80
2018-06-10T18:52:48.769Z,21.80
2018-06-10T18:55:17.650Z,21.80
2018-06-10T18:57:46.427Z,21.80
2018-06-10T19:00:15.719Z,21.70
2018-06-10T19:02:44.494Z,21.70
2018-06-10T19:05:13.274Z,21.60
2018-06-10T19:07:42.058Z,21.50
2018-06-10T19:10:10.885Z,21.50
2018-06-10T19:12:39.650Z,21.50
2018-06-10T19:15:08.437Z,21.40
2018-06-10T19:17:37.202Z,21.20
2018-06-10T19:20:06.041Z,21.10
2018-06-10T19:22:34.858Z,21.00
2018-06-10T19:25:03.634Z,20.90
2018-06-10T19:27:32.466Z,20.80
2018-06-10T19:30:01.233Z,20.80
2018-06-10T19:32:30.023Z,20.70
2018-06-10T19:34:58.786Z,20.60
2018-06-10T19:37:27.542Z,20.50
2018-06-10T19:39:56.398Z,20.40
2018-06-10T19:42:25.154Z,20.40
2018-06-10T19:44:53.910Z,20.30
2018-06-10T19:47:22.697Z,20.30
2018-06-10T19:49:51.490Z,20.20
2018-06-10T19:52:20.242Z,20.10
2018-06-10T19:54:49.030Z,20.00
2018-06-10T19:57:17.814Z,19.90
2018-06-10T19:59:46.574Z,19.80
2018-06-10T20:02:15.426Z,19.60
2018-06-10T20:04:44.235Z,19.50
2018-06-10T20:07:13.018Z,19.40
2018-06-10T20:09:41.793Z,19.30
2018-06-10T20:12:10.580Z,19.30
2018-06-10T20:14:39.403Z,19.20
2018-06-10T20:17:08.197Z,19.20
2018-06-10T20:19:36.949Z,19.10
2018-06-10T20:22:05.735Z,19.00
2018-06-10T20:24:34.538Z,18.90
2018-06-10T20:27:03.312Z,18.90
2018-06-10T20:29:32.108Z,18.80
2018-06-10T20:32:00.884Z,18.80
2018-06-10T20:34:29.658Z,18.70
2018-06-10T20:36:58.423Z,18.60
2018-06-10T20:39:27.214Z,18.60
2018-06-10T20:41:55.970Z,18.50
2018-06-10T20:44:24.734Z,18.40
2018-06-10T20:46:53.608Z,18.40
2018-06-10T20:49:22.370Z,18.40
2018-06-10T20:51:51.181Z,18.40
2018-06-10T20:54:19.930Z,18.40
2018-06-10T20:56:48.764Z,18.30
2018-06-10T20:59:17.588Z,18.30
2018-06-10T21:01:46.354Z,18.30
2018-06-10T21:04:15.115Z,18.20
2018-06-10T21:06:43.904Z,18.10
2018-06-10T21:09:12.686Z,18.00
2018-06-10T21:11:41.458Z,18.10
2018-06-10T21:14:10.230Z,18.10
2018-06-10T21:16:39.014Z,18.00
2018-06-10T21:19:07.775Z,17.90
2018-06-10T21:21:36.542Z,18.00
2018-06-10T21:24:05.316Z,17.90
2018-06-10T21:26:34.086Z,17.90
2018-06-10T21:29:02.842Z,17.90
2018-06-10T21:31:31.598Z,17.90
2018-06-10T21:34:00.367Z,17.90
2018-06-10T21:36:29.118Z,17.80
2018-06-10T21:38:57.882Z,17.80
2018-06-10T21:41:26.702Z,17.80
2018-06-10T21:43:55.430Z,17.80
2018-06-10T21:46:24.187Z,17.80
2018-06-10T21:48:52.955Z,17.70
2018-06-10T21:51:21.726Z,17.70
2018-06-10T21:53:50.594Z,16.90
2018-06-10T21:56:19.378Z,17.60
2018-06-10T21:58:48.198Z,17.60
2018-06-10T22:01:16.974Z,17.60
2018-06-10T22:03:45.730Z,17.50
2018-06-10T22:06:14.465Z,17.50
2018-06-10T22:08:43.278Z,17.50
2018-06-10T22:11:12.054Z,17.50
2018-06-10T22:13:40.905Z,17.50
2018-06-10T22:16:09.674Z,17.40
2018-06-10T22:18:38.450Z,17.40
2018-06-10T22:21:07.254Z,17.40
2018-06-10T22:23:36.050Z,17.40
2018-06-10T22:26:04.810Z,17.40
2018-06-10T22:28:33.569Z,17.40
2018-06-10T22:31:02.342Z,17.30
2018-06-10T22:33:31.107Z,17.40
2018-06-10T22:38:28.229Z,17.40
2018-06-10T22:40:56.985Z,17.30
2018-06-10T22:43:25.766Z,17.30
2018-06-10T22:45:54.542Z,17.30
2018-06-10T22:48:23.346Z,17.30
2018-06-10T22:50:52.143Z,17.40
2018-06-10T22:54:45.726Z,17.40
2018-06-10T22:57:14.490Z,17.40
2018-06-10T22:59:43.255Z,17.30
2018-06-10T23:02:12.042Z,17.40
2018-06-10T23:04:40.790Z,17.40
2018-06-10T23:07:09.631Z,17.40
2018-06-10T23:09:38.406Z,17.40
2018-06-10T23:12:07.190Z,17.40
2018-06-10T23:14:35.954Z,17.50
2018-06-10T23:17:04.800Z,17.40
2018-06-10T23:19:33.550Z,17.40
2018-06-10T23:22:02.327Z,17.40
2018-06-10T23:24:31.099Z,17.40
2018-06-10T23:26:59.894Z,17.40
2018-06-10T23:29:28.648Z,17.40
2018-06-10T23:31:57.408Z,17.40
2018-06-10T23:34:26.163Z,17.40
2018-06-10T23:36:54.898Z,17.30
2018-06-10T23:39:23.680Z,17.30
2018-06-10T23:41:52.431Z,17.30
2018-06-10T23:44:21.209Z,17.30
2018-06-10T23:46:49.978Z,17.30
2018-06-10T23:49:18.726Z,17.30
2018-06-10T23:51:47.498Z,17.30
2018-06-10T23:54:16.265Z,17.30
2018-06-10T23:56:45.034Z,17.30
2018-06-10T23:59:13.805Z,17.20
